Startpagina
METAR-TAF:

METAR-TAF

Vliegvelden :

Teheran, Iran

Teheran Mehrabad International Airport

breedte: 35-41N, lengte: 051-21E, hoogte: 1204 m

Actueel weer

Dit bericht is 16 minuten geleden gemaakt, om 12:00 UTC
Wind 6 kt uit het westen
Temperatuur 34°C
Vochtigheid 14%
Druk 1011 hPa
Zicht 10 km of meer
Weinig wolken op 4000 ft

METAR: OIII 241200Z 28006KT 9999 FEW040 34/03 Q1011 A2986 NOSIG

Tijdstip: 16:46 (12:16 UTC)

Verwachting

Dit bericht is 18 uur en het 46 minuten geleden gemaakt, om 17:30 UTC
Verwachting geldig van 23 om 18 UTC tot 24 om 24 UTC
Wind 10 kt uit het noordwesten
Zicht 10 km of meer
geen wolken onder 1500 m en geen cumulonimbus
Tijdelijke
van 23 om 18 UTC tot 24 om 03 UTC
Wind 19 kt uit het westen
Wijzigt naar
van 24 om 03 UTC tot 24 om 05 UTC
Wind 10 kt uit het zuidoosten

TAF: OIII 231730Z 2318/2424 32005MPS CAVOK TEMPO 2318/2403 28010MPS BECMG 2403/2405 14005MPS

Waarnemingen en weersverwachtingen van meer dan 4000 vliegvelden (METAR en TAF).

De beschikbare stations zijn de gele en rode punten op de kaart.

Ga met uw muis naar het station om de naam te zien.

Klik dan om waarnemingen en weersverwachtingen te zien.

kaart wijzigen: klik op de groene knoppen met een zwart kruis om in te zoomen, op de groene knop met een streepje om uit te zoomen of op de groene pijlen voor aangrenzende kaarten.


METAR-TAF: